BST weather

Belfast Municipal Airport
Belfast, Maine, United States

Public forecast

Using degrees Fahrenheit for public forecast. Weather courtesy of forecast.io.

Closest aviation weather report (METAR) to Belfast Municipal Airport

Closest report is Knox County Regional Airport, 21.3 nm (39.5 km) S. Retrieved 2019/10/19 18:56 UTC (34 minutes ago):

KRKD 191856Z AUTO 30008G16KT 10SM CLR 13/01 A2991 RMK AO2 SLP128 T01330006

Closest aviation forecast (TAF) to Belfast Municipal Airport

Closest forecast is Knox County Regional Airport, 21.3 nm (39.5 km) S. Retrieved 2019/10/19 18:42 UTC (48 minutes ago):

TAF KRKD 191739Z 1918/2018 33008G15KT P6SM SKC FM192300 VRB03KT P6SM FEW250